This is the latest recevied weather packets stored in our database for station/object KC0OOO-WX. If no packets are shown the sender has not sent any weather packets the latest 10 day(s).
| Time | Temp. | Humidity | Pressure | Rain* | Wind** | Luminosity | Snow |
|---|---|---|---|---|---|---|---|
| 1777677913 | 10.56° C | 46% | 1019 hPa | 0 mm | - | - | - |
| 1777677313 | 10.56° C | 44% | 1019 hPa | 0 mm | - | - | - |
| 1777676713 | 11.67° C | 41% | 1018.6 hPa | 0 mm | - | - | - |
| 1777676113 | 12.78° C | 37% | 1018.6 hPa | 0 mm | - | - | - |
| 1777675485 | 13.33° C | 33% | 1018.6 hPa | 0 mm | - | - | - |
| 1777674883 | 13.33° C | 31% | 1018.6 hPa | 0 mm | - | - | - |
| 1777674284 | 12.78° C | 30% | 1019 hPa | 0 mm | - | - | - |
| 1777673683 | 12.78° C | 29% | 1019 hPa | 0 mm | - | - | - |
| 1777673083 | 13.33° C | 29% | 1019 hPa | 0 mm | - | - | - |
| 1777672483 | 13.33° C | 31% | 1019 hPa | 0 mm | - | - | - |
| 1777671883 | 13.33° C | 31% | 1019.3 hPa | 0 mm | - | - | - |
| 1777671283 | 13.33° C | 28% | 1019.3 hPa | 0 mm | - | - | - |
| 1777670683 | 13.33° C | 29% | 1019.3 hPa | 0 mm | - | - | - |
| 1777670083 | 13.33° C | 30% | 1019.3 hPa | 0 mm | - | - | - |
| 1777669483 | 12.78° C | 34% | 1019.3 hPa | 0 mm | - | - | - |
| 1777668853 | 12.78° C | 31% | 1019.3 hPa | 0 mm | - | - | - |
| 1777668253 | 12.22° C | 32% | 1019.3 hPa | 0 mm | - | - | - |
| 1777667653 | 12.22° C | 33% | 1019.3 hPa | 0 mm | - | - | - |
| 1777667053 | 12.22° C | 36% | 1019.3 hPa | 0 mm | - | - | - |
| 1777666453 | 12.22° C | 36% | 1019.3 hPa | 0 mm | - | - | - |
| 1777665853 | 12.78° C | 35% | 1019.3 hPa | 0 mm | - | - | - |
| 1777665253 | 13.33° C | 28% | 1019.6 hPa | 0 mm | - | - | - |
| 1777664623 | 12.78° C | 28% | 1019.3 hPa | 0 mm | - | - | - |
| 1777664023 | 12.22° C | 30% | 1019.3 hPa | 0 mm | - | - | - |
| 1777663423 | 11.67° C | 29% | 1019.6 hPa | 0 mm | - | - | - |
* Rain latest hour (hover to see other rain measurements)
** Current wind speed in m/s (hover to see current wind gust speed)